Decoded Metar for PAWM ( in ) (IATA:) | Meteo·Mobile Aviation Weather
aviador You're here:

PAWM Decoded Metar

in
Report Time2019-02-16 16:56:00
UTC Time2019-02-16 17:36:47
Flight Rules lifr LIFR
Wind170° at 14 Gusting to 19 kt
W.Decomp.*RWY 15: 13.2 kt HW 4.8 kt RCW
W.Rank170° ranks 10
Current wind is above 170° avg. (9.2)
Visibility8047 m
Phenomena:Light Snow
Mist
Clouds:Overcast 004 Hf
Expected CloudBase > 400 ft AGL from Temp-Dew spread
Ceiling400 ft
Temp-4°C
Dew Point-5°C (93% RH)
AAT-11.6°C
QNH1010 hPa
Raw Report
PAWM 161656Z AUTO 17014G19KT 5SM -SN BR OVC004 M04/M05 A2982 RMK
AO2 UPB1557E01SNE1557B01 SLP103 P0000 T10441050 FZRANO=

Extra information for PAWM:More info

Social comments